createdAt,value
2023-04-04T00:02:58.491Z,99.90
2023-04-04T00:09:40.923Z,99.90
2023-04-04T00:16:23.271Z,99.90
2023-04-04T00:23:05.660Z,99.90
2023-04-04T00:29:48.131Z,99.90
2023-04-04T00:36:30.682Z,99.90
2023-04-04T00:43:13.935Z,99.90
2023-04-04T00:49:56.225Z,99.90
2023-04-04T00:56:40.009Z,99.90
2023-04-04T01:03:22.558Z,99.90
2023-04-04T01:10:05.439Z,99.90
2023-04-04T01:16:50.837Z,99.90
2023-04-04T02:37:55.094Z,99.90
2023-04-04T02:44:47.714Z,99.90
2023-04-04T02:51:33.569Z,99.90
2023-04-04T02:58:16.461Z,99.90
2023-04-04T03:04:59.004Z,99.90
2023-04-04T03:11:41.592Z,99.90
2023-04-04T03:18:25.326Z,99.90
2023-04-04T03:25:08.305Z,99.90
2023-04-04T03:38:33.435Z,99.90
2023-04-04T04:12:11.581Z,99.90
2023-04-04T04:18:53.903Z,99.90
2023-04-04T04:25:48.348Z,99.90
2023-04-04T04:32:33.823Z,99.90
2023-04-04T05:53:49.495Z,99.90
2023-04-04T06:00:38.693Z,99.90
2023-04-04T06:07:23.725Z,99.90
2023-04-04T06:14:07.752Z,99.90
2023-04-04T06:20:51.248Z,89.50
2023-04-04T06:27:33.699Z,81.00
2023-04-04T06:34:18.028Z,76.20
2023-04-04T06:41:11.774Z,72.00
2023-04-04T06:47:55.196Z,69.50
2023-04-04T06:54:37.809Z,68.80
2023-04-04T07:01:20.201Z,66.30
2023-04-04T07:08:02.600Z,64.80
2023-04-04T07:14:45.025Z,64.60
2023-04-04T07:21:27.315Z,64.50
2023-04-04T07:28:12.819Z,64.70
2023-04-04T07:34:56.807Z,63.70
2023-04-04T07:41:39.197Z,64.30
2023-04-04T07:48:22.989Z,61.30
2023-04-04T07:55:07.612Z,57.80
2023-04-04T08:01:50.124Z,58.40
2023-04-04T08:08:32.532Z,58.30
2023-04-04T08:15:15.007Z,54.80
2023-04-04T08:21:57.681Z,54.50
2023-04-04T08:28:40.402Z,54.40
2023-04-04T08:35:22.823Z,51.90
2023-04-04T08:42:07.440Z,53.10
2023-04-04T08:48:52.754Z,50.20
2023-04-04T08:55:35.238Z,48.80
2023-04-04T09:02:32.190Z,47.60
2023-04-04T09:09:16.462Z,45.60
2023-04-04T09:16:00.484Z,45.30
2023-04-04T09:22:45.876Z,43.90
2023-04-04T09:29:28.198Z,43.70
2023-04-04T09:36:14.089Z,46.60
2023-04-04T09:43:00.815Z,44.90
2023-04-04T09:49:44.023Z,47.00
2023-04-04T09:56:27.553Z,43.70
2023-04-04T10:03:12.330Z,44.50
2023-04-04T10:09:55.490Z,43.80
2023-04-04T10:16:38.592Z,44.00
2023-04-04T10:23:27.458Z,44.70
2023-04-04T10:30:10.396Z,46.00
2023-04-04T10:37:02.644Z,45.10
2023-04-04T10:43:47.626Z,45.50
2023-04-04T10:50:33.196Z,48.10
2023-04-04T10:57:16.104Z,47.40
2023-04-04T11:04:20.081Z,50.90
2023-04-04T11:11:09.756Z,50.60
2023-04-04T11:17:59.918Z,55.20
2023-04-04T11:24:44.542Z,53.60
2023-04-04T11:31:33.597Z,54.80
2023-04-04T11:38:17.107Z,52.40
2023-04-04T11:45:04.899Z,53.30
2023-04-04T11:51:47.254Z,55.10
2023-04-04T11:58:29.643Z,57.40
2023-04-04T12:05:12.179Z,55.70
2023-04-04T12:11:55.147Z,56.50
2023-04-04T12:18:37.705Z,58.80
2023-04-04T12:25:24.544Z,58.10
2023-04-04T12:32:07.706Z,59.20
2023-04-04T12:38:58.760Z,58.80
2023-04-04T12:45:42.280Z,57.20
2023-04-04T12:52:31.945Z,58.60
2023-04-04T12:59:14.816Z,58.10
2023-04-04T13:05:59.516Z,59.90
2023-04-04T13:12:58.731Z,59.20
2023-04-04T13:19:41.362Z,58.50
2023-04-04T13:26:23.693Z,59.30
2023-04-04T13:33:06.455Z,58.20
2023-04-04T13:39:48.818Z,58.50
2023-04-04T13:46:31.406Z,58.60
2023-04-04T13:53:13.732Z,59.10
2023-04-04T13:59:58.793Z,57.30
2023-04-04T14:06:41.144Z,57.60
2023-04-04T14:13:23.465Z,59.10
2023-04-04T14:20:06.753Z,59.60
2023-04-04T14:26:49.060Z,57.30
2023-04-04T14:33:31.786Z,59.90
2023-04-04T14:40:14.153Z,57.10
2023-04-04T14:46:56.644Z,57.30
2023-04-04T14:53:39.378Z,57.80
2023-04-04T15:00:23.928Z,57.40
2023-04-04T15:07:06.376Z,59.00
2023-04-04T15:13:48.745Z,58.70
2023-04-04T15:20:31.148Z,59.50
2023-04-04T15:27:13.559Z,59.40
2023-04-04T15:33:58.978Z,60.60
2023-04-04T15:40:41.573Z,62.10
2023-04-04T15:47:24.127Z,62.20
2023-04-04T15:54:06.509Z,61.30
2023-04-04T16:00:49.381Z,61.10
2023-04-04T16:07:32.297Z,62.30
2023-04-04T16:14:14.654Z,62.20
2023-04-04T16:20:57.052Z,62.00
2023-04-04T16:27:39.395Z,63.30
2023-04-04T16:34:21.689Z,63.00
2023-04-04T16:41:05.288Z,63.40
2023-04-04T16:47:47.986Z,63.30
2023-04-04T16:54:30.651Z,63.50
2023-04-04T17:01:15.129Z,64.30
2023-04-04T17:07:57.585Z,63.00
2023-04-04T17:14:39.967Z,64.30
2023-04-04T17:21:22.638Z,65.50
2023-04-04T17:28:05.692Z,66.90
2023-04-04T17:34:47.989Z,67.50
2023-04-04T17:41:30.431Z,67.80
2023-04-04T17:48:12.841Z,68.10
2023-04-04T17:54:55.225Z,69.40
2023-04-04T18:01:39.028Z,71.50
2023-04-04T18:08:22.517Z,73.10
2023-04-04T18:15:06.274Z,73.60
2023-04-04T18:21:50.373Z,75.40
2023-04-04T18:28:32.715Z,76.20
2023-04-04T18:35:15.458Z,77.20
2023-04-04T18:41:58.024Z,78.40
2023-04-04T18:48:41.388Z,79.10
2023-04-04T18:55:23.804Z,80.50
2023-04-04T19:02:06.094Z,81.60
2023-04-04T19:08:48.689Z,83.10
2023-04-04T19:15:31.839Z,84.30
2023-04-04T19:22:14.516Z,85.60
2023-04-04T19:28:56.891Z,86.40
2023-04-04T19:35:55.799Z,87.80
2023-04-04T19:42:41.640Z,88.30
2023-04-04T19:49:30.178Z,89.40
2023-04-04T19:56:15.387Z,90.10
2023-04-04T20:03:05.723Z,91.10
2023-04-04T20:09:50.921Z,91.10
2023-04-04T20:16:33.466Z,91.10
2023-04-04T20:23:16.789Z,91.60
2023-04-04T20:29:59.325Z,92.50
2023-04-04T20:36:42.364Z,93.60
2023-04-04T20:43:25.413Z,95.80
2023-04-04T20:50:16.990Z,97.80
2023-04-04T20:56:59.439Z,96.70
2023-04-04T21:03:41.946Z,99.90
2023-04-04T21:10:47.992Z,99.90
2023-04-04T21:17:30.516Z,99.90
2023-04-04T21:24:13.708Z,99.90
2023-04-04T21:30:59.245Z,99.90
2023-04-04T21:37:44.524Z,99.90
2023-04-04T21:44:27.276Z,99.90
2023-04-04T21:51:09.569Z,99.90
2023-04-04T21:57:51.880Z,99.90
2023-04-04T22:04:34.162Z,99.90
2023-04-04T22:11:19.336Z,99.90
2023-04-04T22:18:05.209Z,99.90
2023-04-04T22:24:51.138Z,99.90
2023-04-04T22:31:37.893Z,99.90
2023-04-04T22:38:20.959Z,99.90
2023-04-04T22:45:04.246Z,99.90
2023-04-04T22:51:46.744Z,99.90
2023-04-04T22:58:29.039Z,99.90
2023-04-04T23:05:13.878Z,99.90
2023-04-04T23:11:57.459Z,99.90
2023-04-04T23:18:39.802Z,99.90
2023-04-04T23:25:22.333Z,99.90
2023-04-04T23:32:04.973Z,99.90
2023-04-04T23:38:47.373Z,99.90
2023-04-04T23:45:35.568Z,99.90
2023-04-04T23:52:17.902Z,99.90
2023-04-04T23:59:00.547Z,99.90
